Barney, Arkansas
Current Conditions -  °F | °C
As of 4:58 PM on Wednesday 22 Oct 2014 (Local Time) from KLRF Reporting Station
Clear Clear  
Wind Chill: 70°   Ceiling: Unl
Heat Index: 70°   Visibility: 10mi
Dew Point: 49°   Wind: 8mph
Humidity: 47%   Direction: 60°ENE
Pressure: 30.16"   Gusts: NA
Location:  35.2186°N, 92.2123°W
Report Text: KLRF 222158Z AUTO 06007KT 10SM CLR 21/09 A3016 RMK AO2 SLP215 T02100092 $
Loading
Personal Weather Stations






























Interactive Weather Map
Tropical Storm Tracking
New forecast layout! Learn more

10-Day Weather Forecast

Advertisements
Track Severe Weather on mobile